Time;durP1;ratioP1;P1;durP2;ratioP2;P2;SDS_P1;SDS_P2;PMS_P1;PMS_P2;Temp;Humidity;BMP_temperature;BMP_pressure;BME280_temperature;BME280_humidity;BME280_pressure;Samples;Min_cycle;Max_cycle;Signal;HPM_P1;HPM_P2
2022/09/25 00:00:28;;;;;;;2.70;1.70;;;13.60;99.90;;;;;;5059629;28;20758;-72
2022/09/25 00:02:55;;;;;;;4.40;2.53;;;13.60;99.90;;;;;;5056005;28;20459;-73
2022/09/25 00:05:22;;;;;;;2.70;1.63;;;13.60;99.90;;;;;;5058361;28;20538;-72
2022/09/25 00:07:48;;;;;;;4.00;2.40;;;13.50;99.90;;;;;;5056351;28;20627;-72
2022/09/25 00:10:15;;;;;;;3.33;2.10;;;13.50;99.90;;;;;;5059582;28;20454;-72
2022/09/25 00:12:44;;;;;;;5.50;1.90;;;13.50;99.90;;;;;;5056761;28;20442;-74
2022/09/25 00:15:11;;;;;;;2.37;1.60;;;13.50;99.90;;;;;;5058096;28;20458;-74
2022/09/25 00:17:38;;;;;;;3.63;1.90;;;13.50;99.90;;;;;;5056555;28;20475;-73
2022/09/25 00:20:04;;;;;;;2.40;1.80;;;13.50;99.90;;;;;;5058073;28;20576;-73
2022/09/25 00:22:31;;;;;;;3.43;2.13;;;13.50;99.90;;;;;;5052600;28;20443;-73
2022/09/25 00:24:58;;;;;;;3.37;1.90;;;13.50;99.90;;;;;;5056272;28;20453;-72
2022/09/25 00:27:25;;;;;;;3.63;1.83;;;13.40;99.90;;;;;;5054678;28;20568;-72
2022/09/25 00:29:53;;;;;;;3.00;1.60;;;13.40;99.90;;;;;;5059319;28;20875;-72
2022/09/25 00:32:20;;;;;;;3.70;1.80;;;13.40;99.90;;;;;;5055318;28;20518;-72
2022/09/25 00:34:47;;;;;;;3.30;1.70;;;13.40;99.90;;;;;;5058569;28;20770;-72
2022/09/25 00:37:14;;;;;;;3.00;1.50;;;13.40;99.90;;;;;;5058510;28;20454;-72
2022/09/25 00:39:41;;;;;;;2.30;1.53;;;13.50;99.90;;;;;;5055496;28;20506;-72
2022/09/25 00:42:11;;;;;;;2.37;1.70;;;13.50;99.90;;;;;;5056756;28;20746;-72
2022/09/25 00:44:59;;;;;;;3.33;1.43;;;13.50;99.90;;;;;;5054991;28;20463;-72
2022/09/25 00:47:43;;;;;;;2.23;1.40;;;13.50;99.90;;;;;;5054337;28;20502;-72
2022/09/25 00:50:33;;;;;;;2.73;1.40;;;13.50;99.90;;;;;;5057899;28;20451;-73
2022/09/25 00:53:05;;;;;;;3.47;1.83;;;13.50;99.90;;;;;;5049884;28;20451;-72
2022/09/25 00:55:34;;;;;;;3.57;2.00;;;13.50;99.90;;;;;;5058551;28;20471;-72
2022/09/25 00:58:02;;;;;;;2.13;1.40;;;13.40;99.90;;;;;;5056291;28;20887;-72
2022/09/25 01:00:31;;;;;;;2.93;1.50;;;13.40;99.90;;;;;;5058448;28;20450;-72
2022/09/25 01:02:59;;;;;;;2.80;1.30;;;13.30;99.90;;;;;;5055435;28;20446;-72
2022/09/25 01:05:29;;;;;;;2.30;1.70;;;13.30;99.90;;;;;;5058201;28;20534;-72
2022/09/25 01:07:58;;;;;;;3.27;2.27;;;13.30;99.90;;;;;;5055350;28;20555;-72
2022/09/25 01:10:26;;;;;;;1.97;1.27;;;13.30;99.90;;;;;;5058242;28;20863;-73
2022/09/25 01:12:54;;;;;;;3.03;2.10;;;13.30;99.90;;;;;;5055260;28;20544;-72
2022/09/25 01:15:27;;;;;;;2.90;1.50;;;13.30;99.90;;;;;;5057741;28;20527;-73
2022/09/25 01:18:05;;;;;;;3.90;1.93;;;13.30;99.90;;;;;;5055195;28;20479;-73
2022/09/25 01:21:00;;;;;;;3.63;2.37;;;13.30;99.90;;;;;;5057270;28;20884;-72
2022/09/25 01:23:48;;;;;;;3.63;1.60;;;13.30;99.90;;;;;;5057011;28;20455;-73
2022/09/25 01:26:41;;;;;;;3.33;1.80;;;13.30;99.90;;;;;;5053402;28;20494;-73
2022/09/25 01:29:14;;;;;;;3.77;2.60;;;13.30;99.90;;;;;;5056588;28;20867;-73
2022/09/25 01:31:48;;;;;;;3.93;1.80;;;13.20;99.90;;;;;;5057502;28;20452;-73
2022/09/25 01:34:19;;;;;;;2.17;1.57;;;13.20;99.90;;;;;;5054880;28;20542;-73
2022/09/25 01:36:51;;;;;;;4.23;2.30;;;13.20;99.90;;;;;;5058209;28;20491;-73
2022/09/25 01:39:21;;;;;;;2.30;1.40;;;13.20;99.90;;;;;;5054122;28;20463;-73
2022/09/25 01:41:54;;;;;;;1.70;1.30;;;13.20;99.90;;;;;;5056257;28;20454;-73
2022/09/25 01:44:28;;;;;;;3.23;1.50;;;13.30;99.90;;;;;;5033651;28;20487;-73
2022/09/25 01:46:59;;;;;;;3.03;1.77;;;13.40;99.90;;;;;;5035533;28;20907;-73
2022/09/25 01:49:29;;;;;;;2.73;1.40;;;13.40;99.90;;;;;;5032532;28;20460;-72
2022/09/25 01:51:59;;;;;;;2.10;1.40;;;13.50;99.90;;;;;;5035921;28;20462;-73
2022/09/25 01:54:30;;;;;;;4.63;2.37;;;13.50;99.90;;;;;;5033131;28;20955;-73
2022/09/25 01:57:03;;;;;;;3.50;1.60;;;13.60;99.90;;;;;;5037369;28;20457;-73
2022/09/25 01:59:38;;;;;;;3.17;1.57;;;13.60;99.90;;;;;;5037594;28;20460;-73
2022/09/25 02:02:12;;;;;;;2.00;1.30;;;13.60;99.90;;;;;;5037558;28;20880;-73
2022/09/25 02:04:42;;;;;;;2.60;1.43;;;13.70;99.90;;;;;;5034887;28;20810;-73
2022/09/25 02:07:16;;;;;;;2.13;1.50;;;13.70;99.90;;;;;;5037238;28;20972;-73
2022/09/25 02:09:45;;;;;;;2.63;1.50;;;13.70;99.90;;;;;;5037606;28;20475;-73
2022/09/25 02:12:17;;;;;;;3.40;1.97;;;13.70;99.90;;;;;;5037666;28;20546;-73
2022/09/25 02:14:49;;;;;;;2.70;1.80;;;13.70;99.90;;;;;;5037532;28;20452;-73
2022/09/25 02:22:51;;;;;;;6.27;3.10;;;13.60;99.90;;;;;;5031354;28;20427;-73
2022/09/25 02:25:25;;;;;;;3.23;2.00;;;13.50;99.90;;;;;;5033978;28;20458;-73
2022/09/25 02:27:52;;;;;;;3.70;1.70;;;13.40;99.90;;;;;;5030249;28;20489;-73
2022/09/25 02:30:20;;;;;;;2.97;1.77;;;13.40;99.90;;;;;;5034864;28;20491;-73
2022/09/25 02:32:47;;;;;;;4.03;3.00;;;13.40;99.90;;;;;;5033678;28;20539;-73
2022/09/25 02:35:14;;;;;;;4.80;2.00;;;13.40;99.90;;;;;;5036239;28;20548;-73
2022/09/25 02:37:41;;;;;;;5.63;3.33;;;13.50;99.90;;;;;;5034115;28;21180;-72
2022/09/25 02:40:10;;;;;;;2.43;2.23;;;13.50;99.90;;;;;;5035413;28;20478;-73
2022/09/25 02:42:47;;;;;;;3.57;2.30;;;13.50;99.90;;;;;;5037933;28;20486;-73
2022/09/25 02:45:27;;;;;;;3.90;2.70;;;13.50;99.90;;;;;;5055184;28;20458;-73
2022/09/25 02:48:04;;;;;;;4.03;2.13;;;13.60;99.90;;;;;;5056623;28;20569;-73
2022/09/25 02:50:39;;;;;;;4.97;2.73;;;13.50;99.90;;;;;;5060475;28;20878;-73
2022/09/25 02:53:11;;;;;;;4.53;2.23;;;13.50;99.90;;;;;;5059249;28;20451;-73
2022/09/25 02:55:43;;;;;;;6.07;3.13;;;13.50;99.90;;;;;;5060553;28;20455;-72
2022/09/25 02:58:16;;;;;;;4.17;2.67;;;13.40;99.90;;;;;;5057800;28;20443;-73
2022/09/25 03:00:48;;;;;;;4.07;3.30;;;13.30;99.90;;;;;;5060373;28;20455;-73
2022/09/25 03:03:18;;;;;;;4.37;1.90;;;13.30;99.90;;;;;;5057128;28;20477;-73
2022/09/25 03:05:47;;;;;;;4.83;2.63;;;13.30;99.90;;;;;;5060360;28;20948;-73
2022/09/25 03:10:59;;;;;;;3.77;2.77;;;13.40;99.90;;;;;;5060327;28;20465;-73
2022/09/25 03:13:30;;;;;;;3.60;1.90;;;13.50;99.90;;;;;;5057308;28;20545;-73
2022/09/25 03:16:02;;;;;;;3.97;2.80;;;13.50;99.90;;;;;;5059380;28;20800;-73
2022/09/25 03:18:30;;;;;;;2.40;1.80;;;13.60;99.90;;;;;;5056857;28;20457;-73
2022/09/25 03:20:57;;;;;;;3.27;2.20;;;13.60;99.90;;;;;;5057829;28;20786;-73
2022/09/25 03:23:25;;;;;;;3.90;2.30;;;13.70;99.90;;;;;;5054281;28;20451;-73
2022/09/25 03:25:53;;;;;;;5.37;2.77;;;13.70;99.90;;;;;;5058495;28;20905;-73
2022/09/25 03:28:21;;;;;;;3.97;2.50;;;13.70;99.90;;;;;;5055616;28;20483;-73
2022/09/25 03:31:01;;;;;;;3.70;2.23;;;13.60;99.90;;;;;;5058433;28;20451;-72
2022/09/25 03:33:30;;;;;;;5.70;2.33;;;13.50;99.90;;;;;;5056818;28;20501;-73
2022/09/25 03:36:01;;;;;;;3.50;1.90;;;13.50;99.90;;;;;;5060943;28;20451;-73
2022/09/25 03:38:28;;;;;;;4.53;2.43;;;13.40;99.90;;;;;;5058216;28;20455;-73
2022/09/25 03:40:55;;;;;;;3.50;2.57;;;13.50;99.90;;;;;;5060120;28;20542;-73
2022/09/25 03:43:21;;;;;;;2.83;1.83;;;13.50;99.90;;;;;;5059748;28;20712;-73
2022/09/25 03:45:48;;;;;;;2.83;2.30;;;13.50;99.90;;;;;;5057063;28;20456;-73
2022/09/25 03:48:16;;;;;;;4.33;2.00;;;13.50;99.90;;;;;;5059260;28;20487;-73
2022/09/25 03:50:45;;;;;;;3.20;2.10;;;13.50;99.90;;;;;;5055170;28;20456;-73
2022/09/25 03:53:12;;;;;;;3.40;2.20;;;13.40;99.90;;;;;;5058128;28;20447;-73
2022/09/25 03:55:38;;;;;;;5.07;2.87;;;13.40;99.90;;;;;;5057807;28;20466;-73
2022/09/25 03:58:05;;;;;;;3.03;1.70;;;13.40;99.90;;;;;;5058801;28;20452;-73
2022/09/25 04:00:32;;;;;;;4.03;2.07;;;13.40;99.90;;;;;;5055790;28;20802;-73
2022/09/25 04:02:59;;;;;;;5.97;2.27;;;13.30;99.90;;;;;;5057827;28;20448;-72
2022/09/25 04:05:27;;;;;;;3.30;1.63;;;13.40;99.90;;;;;;5054596;28;20541;-73
2022/09/25 04:07:54;;;;;;;3.20;1.90;;;13.40;99.90;;;;;;5057735;28;20458;-73
2022/09/25 04:10:21;;;;;;;4.00;2.10;;;13.40;99.90;;;;;;5055068;28;20539;-73
2022/09/25 04:12:54;;;;;;;2.73;1.70;;;13.50;99.90;;;;;;5057889;28;20959;-73
2022/09/25 04:15:22;;;;;;;1.93;1.30;;;13.50;99.90;;;;;;5055789;28;20513;-72
2022/09/25 04:17:49;;;;;;;2.37;1.60;;;13.50;99.90;;;;;;5057931;28;20451;-73
2022/09/25 04:20:16;;;;;;;2.90;1.13;;;13.40;99.90;;;;;;5055731;28;20507;-72
2022/09/25 04:22:45;;;;;;;2.30;1.20;;;13.40;99.90;;;;;;5058023;28;20526;-71
2022/09/25 04:25:13;;;;;;;4.40;1.80;;;13.40;99.90;;;;;;5054818;28;20439;-71
2022/09/25 04:27:40;;;;;;;2.57;1.60;;;13.40;99.90;;;;;;5057942;28;20501;-72
2022/09/25 04:30:09;;;;;;;3.33;1.73;;;13.40;99.90;;;;;;5054724;28;20521;-72
2022/09/25 04:35:20;;;;;;;4.53;3.13;;;13.40;99.90;;;;;;5056181;28;20430;-72
2022/09/25 04:37:48;;;;;;;7.73;4.53;;;13.40;99.90;;;;;;5057534;28;20844;-72
2022/09/25 04:40:15;;;;;;;4.87;4.07;;;13.40;99.90;;;;;;5054545;28;20459;-72
2022/09/25 04:42:42;;;;;;;6.80;4.70;;;13.40;99.90;;;;;;5057476;28;20480;-72
2022/09/25 04:45:10;;;;;;;5.20;3.23;;;13.40;99.90;;;;;;5054193;28;20561;-72
2022/09/25 04:47:37;;;;;;;4.13;3.30;;;13.30;99.90;;;;;;5057971;28;20526;-72
2022/09/25 04:50:04;;;;;;;6.33;4.50;;;13.30;99.90;;;;;;5055297;28;20487;-71
2022/09/25 04:52:31;;;;;;;5.40;3.73;;;13.30;99.90;;;;;;5058320;28;20547;-72
2022/09/25 04:54:59;;;;;;;7.80;4.53;;;13.30;99.90;;;;;;5055404;28;20821;-72
2022/09/25 04:57:26;;;;;;;4.37;3.23;;;13.40;99.90;;;;;;5058517;28;20458;-72
2022/09/25 04:59:53;;;;;;;6.47;4.43;;;13.40;99.90;;;;;;5055990;28;20554;-72
2022/09/25 05:02:20;;;;;;;3.67;3.03;;;13.40;99.90;;;;;;5058076;28;20896;-73
2022/09/25 05:04:47;;;;;;;5.40;3.20;;;13.40;99.90;;;;;;5055781;28;20455;-73
2022/09/25 05:07:16;;;;;;;3.90;2.30;;;13.50;99.90;;;;;;5057595;28;20942;-73
2022/09/25 05:09:43;;;;;;;3.57;2.43;;;13.40;99.90;;;;;;5054228;28;20479;-72
2022/09/25 05:12:11;;;;;;;3.13;1.80;;;13.40;99.90;;;;;;5057723;28;20542;-73
2022/09/25 05:14:41;;;;;;;2.10;1.43;;;13.30;99.90;;;;;;5055391;28;20462;-73
2022/09/25 05:17:09;;;;;;;2.43;1.57;;;13.30;99.90;;;;;;5057903;28;20451;-73
2022/09/25 05:19:36;;;;;;;3.70;1.67;;;13.30;99.90;;;;;;5054372;28;21423;-72
2022/09/25 05:22:03;;;;;;;3.03;1.77;;;13.30;99.90;;;;;;5057778;28;20941;-72
2022/09/25 05:24:30;;;;;;;5.93;2.10;;;13.30;99.90;;;;;;5055525;28;20455;-73
2022/09/25 05:26:57;;;;;;;4.03;2.10;;;13.30;99.90;;;;;;5057031;28;20883;-72
2022/09/25 05:29:25;;;;;;;3.90;2.07;;;13.40;99.90;;;;;;5053754;28;20481;-72
2022/09/25 05:31:52;;;;;;;3.13;1.60;;;13.40;99.90;;;;;;5057924;28;20535;-73
2022/09/25 05:34:19;;;;;;;4.73;2.50;;;13.40;99.90;;;;;;5053678;28;20540;-73
2022/09/25 05:36:46;;;;;;;2.30;1.30;;;13.40;99.90;;;;;;5056886;28;20454;-73
2022/09/25 05:39:13;;;;;;;2.70;1.80;;;13.50;99.90;;;;;;5057246;28;20756;-73
2022/09/25 05:41:40;;;;;;;2.70;1.90;;;13.50;99.90;;;;;;5055435;28;20530;-73
2022/09/25 05:44:08;;;;;;;4.67;2.50;;;13.50;99.90;;;;;;5056732;28;20926;-73
2022/09/25 05:46:37;;;;;;;3.33;2.40;;;13.50;99.90;;;;;;5053853;28;20490;-73
2022/09/25 05:49:04;;;;;;;4.30;1.70;;;13.50;99.90;;;;;;5056110;28;20574;-73
2022/09/25 05:51:31;;;;;;;3.10;1.67;;;13.50;99.90;;;;;;5053294;28;20502;-72
2022/09/25 05:53:59;;;;;;;4.73;3.07;;;13.60;99.90;;;;;;5056709;28;20482;-72
2022/09/25 05:56:26;;;;;;;4.10;1.70;;;13.60;99.90;;;;;;5054409;28;20455;-73
2022/09/25 05:58:54;;;;;;;4.03;2.40;;;13.60;99.90;;;;;;5056138;28;20911;-73
2022/09/25 06:01:20;;;;;;;3.57;2.33;;;13.60;99.90;;;;;;5053466;28;20747;-73
2022/09/25 06:03:49;;;;;;;3.47;2.10;;;13.50;99.90;;;;;;5056643;28;20452;-72
2022/09/25 06:06:16;;;;;;;3.03;1.93;;;13.40;99.90;;;;;;5057037;28;20764;-73
2022/09/25 06:08:43;;;;;;;3.93;2.30;;;13.40;99.90;;;;;;5057146;28;21009;-72
2022/09/25 06:11:10;;;;;;;4.50;2.20;;;13.40;99.90;;;;;;5057018;28;20471;-72
2022/09/25 06:13:43;;;;;;;4.27;2.70;;;13.40;99.90;;;;;;5055205;28;20464;-73
2022/09/25 06:16:18;;;;;;;4.57;3.10;;;13.40;99.90;;;;;;5057209;28;20443;-73
2022/09/25 06:18:46;;;;;;;4.17;2.80;;;13.40;99.90;;;;;;5057948;28;20743;-72
2022/09/25 06:21:14;;;;;;;5.70;2.63;;;13.30;99.90;;;;;;5057191;28;20505;-72
2022/09/25 06:23:43;;;;;;;4.50;2.10;;;13.40;99.90;;;;;;5053547;28;20459;-73
2022/09/25 06:26:11;;;;;;;2.80;2.20;;;13.40;99.90;;;;;;5056735;28;20452;-73
2022/09/25 06:28:38;;;;;;;4.50;2.33;;;13.40;99.90;;;;;;5055891;28;20839;-72
2022/09/25 06:31:05;;;;;;;3.87;2.33;;;13.40;99.90;;;;;;5056970;28;20464;-72
2022/09/25 06:33:33;;;;;;;5.87;3.70;;;13.40;99.90;;;;;;5055145;28;20961;-73
2022/09/25 06:36:00;;;;;;;3.40;1.97;;;13.40;99.90;;;;;;5056785;28;20466;-73
2022/09/25 06:38:29;;;;;;;4.20;3.03;;;13.40;99.90;;;;;;5054321;28;20455;-74
2022/09/25 06:40:56;;;;;;;5.13;3.20;;;13.50;99.90;;;;;;5056836;28;20457;-74
2022/09/25 06:43:22;;;;;;;6.80;3.20;;;13.40;99.90;;;;;;5053594;28;20490;-72
2022/09/25 06:45:50;;;;;;;5.83;3.37;;;13.40;99.90;;;;;;5056261;28;20522;-72
2022/09/25 06:48:17;;;;;;;8.93;3.50;;;13.50;99.90;;;;;;5051913;28;20558;-73
2022/09/25 06:50:48;;;;;;;6.03;2.83;;;13.50;99.90;;;;;;5055529;28;20775;-73
2022/09/25 06:53:16;;;;;;;8.30;2.70;;;13.50;99.90;;;;;;5052029;28;20455;-72
2022/09/25 06:55:45;;;;;;;4.37;2.37;;;13.50;99.90;;;;;;5056058;28;20762;-73
2022/09/25 06:58:14;;;;;;;6.80;2.77;;;13.50;99.90;;;;;;5053743;28;20456;-73
2022/09/25 07:00:41;;;;;;;4.97;2.53;;;13.50;99.90;;;;;;5056748;28;20451;-73
2022/09/25 07:05:52;;;;;;;4.90;3.23;;;13.30;99.90;;;;;;5055676;28;20890;-72
2022/09/25 07:08:20;;;;;;;3.87;2.33;;;13.30;99.90;;;;;;5052441;28;20455;-73
2022/09/25 07:10:50;;;;;;;5.63;2.50;;;13.30;99.90;;;;;;5055545;28;20484;-72
2022/09/25 07:13:17;;;;;;;5.50;2.50;;;13.30;99.90;;;;;;5052242;28;20939;-71
2022/09/25 07:15:50;;;;;;;4.90;2.40;;;13.30;99.90;;;;;;5054673;28;20451;-72
2022/09/25 07:18:17;;;;;;;3.80;2.30;;;13.30;99.90;;;;;;5052396;28;20558;-71
2022/09/25 07:20:45;;;;;;;4.73;2.13;;;13.30;99.90;;;;;;5055930;28;20442;-72
2022/09/25 07:23:12;;;;;;;4.37;2.10;;;13.40;99.90;;;;;;5052782;28;20465;-71
2022/09/25 07:25:39;;;;;;;4.10;2.60;;;13.60;99.90;;;;;;5053120;28;20816;-71
2022/09/25 07:28:08;;;;;;;4.80;2.10;;;13.80;99.90;;;;;;5052318;28;20455;-72
2022/09/25 07:30:35;;;;;;;2.43;1.60;;;13.80;99.90;;;;;;5055767;28;20479;-71
2022/09/25 07:33:02;;;;;;;4.00;2.03;;;13.80;99.90;;;;;;5056462;28;20447;-71
2022/09/25 07:35:28;;;;;;;4.13;2.13;;;13.80;99.90;;;;;;5059189;28;20747;-71
2022/09/25 07:37:56;;;;;;;4.30;2.40;;;13.80;99.90;;;;;;5056341;28;20461;-73
2022/09/25 07:40:25;;;;;;;4.63;2.63;;;13.90;99.90;;;;;;5058317;28;20864;-74
2022/09/25 07:42:52;;;;;;;3.20;2.60;;;14.10;99.90;;;;;;5054518;28;20511;-72
2022/09/25 07:45:20;;;;;;;3.10;1.63;;;14.10;99.90;;;;;;5057140;28;20451;-74
2022/09/25 07:47:46;;;;;;;4.10;1.80;;;14.20;99.90;;;;;;5054529;28;20455;-73
2022/09/25 07:50:13;;;;;;;2.90;1.40;;;14.30;99.90;;;;;;5058552;28;20952;-71
2022/09/25 07:52:40;;;;;;;3.90;2.30;;;14.20;99.90;;;;;;5054599;28;20455;-72
2022/09/25 07:55:08;;;;;;;2.73;1.47;;;14.10;99.90;;;;;;5057974;28;20963;-72
2022/09/25 07:57:35;;;;;;;2.60;1.50;;;14.20;99.90;;;;;;5055190;28;20757;-71
2022/09/25 08:00:03;;;;;;;3.13;1.73;;;14.20;99.90;;;;;;5058975;28;20443;-72
2022/09/25 08:02:33;;;;;;;4.07;2.13;;;14.20;99.90;;;;;;5055084;28;20463;-72
2022/09/25 08:05:01;;;;;;;3.50;1.80;;;14.10;99.90;;;;;;5058296;28;20462;-72
2022/09/25 08:07:31;;;;;;;3.23;1.60;;;14.30;99.90;;;;;;5054202;28;20467;-71
2022/09/25 08:09:58;;;;;;;2.20;1.63;;;14.20;99.90;;;;;;5058408;28;20471;-72
2022/09/25 08:12:25;;;;;;;3.30;1.67;;;14.30;99.90;;;;;;5055801;28;20526;-72
2022/09/25 08:14:51;;;;;;;3.50;1.50;;;14.30;99.90;;;;;;5058515;28;20447;-72
2022/09/25 08:17:18;;;;;;;2.17;1.40;;;14.30;99.90;;;;;;5057917;28;20545;-71
2022/09/25 08:19:46;;;;;;;2.63;1.60;;;14.40;99.90;;;;;;5058718;28;20938;-72
2022/09/25 08:22:13;;;;;;;2.47;1.30;;;14.50;99.90;;;;;;5055379;28;20455;-71
2022/09/25 08:24:40;;;;;;;3.37;1.30;;;14.50;99.90;;;;;;5057871;28;20453;-72
2022/09/25 08:27:07;;;;;;;1.93;1.27;;;14.40;99.90;;;;;;5056395;28;20455;-72
2022/09/25 08:29:34;;;;;;;1.80;1.20;;;14.40;99.90;;;;;;5057665;28;20817;-71
2022/09/25 08:32:01;;;;;;;2.00;1.30;;;14.50;99.90;;;;;;5055663;28;20457;-71
2022/09/25 08:34:28;;;;;;;5.40;2.37;;;14.40;99.90;;;;;;5057840;28;20447;-72
2022/09/25 08:36:57;;;;;;;2.97;1.50;;;14.50;99.90;;;;;;5058150;28;20459;-72
2022/09/25 08:39:24;;;;;;;1.50;0.93;;;14.50;99.90;;;;;;5061279;28;20534;-72
2022/09/25 08:41:52;;;;;;;4.77;1.47;;;14.50;99.90;;;;;;5054752;28;20466;-73
2022/09/25 08:44:25;;;;;;;2.77;1.50;;;14.50;99.90;;;;;;5057270;28;20447;-72
2022/09/25 08:49:46;;;;;;;2.77;1.10;;;14.60;99.90;;;;;;5057201;28;20779;-73
2022/09/25 08:52:17;;;;;;;1.60;1.20;;;14.60;99.90;;;;;;5058192;28;20863;-73
2022/09/25 08:54:45;;;;;;;1.77;1.30;;;14.90;99.90;;;;;;5054940;28;20558;-74
2022/09/25 08:57:28;;;;;;;1.90;1.23;;;15.00;99.90;;;;;;5057945;28;20450;-74
2022/09/25 08:59:58;;;;;;;1.60;1.00;;;15.10;99.90;;;;;;5055238;28;20457;-74
2022/09/25 09:02:37;;;;;;;1.20;0.97;;;15.10;99.90;;;;;;5058617;28;20546;-73
2022/09/25 09:05:07;;;;;;;2.97;1.07;;;15.20;99.90;;;;;;5053266;28;20463;-73
2022/09/25 09:07:39;;;;;;;1.50;1.00;;;15.20;99.90;;;;;;5057422;28;20517;-73
2022/09/25 09:10:16;;;;;;;1.37;1.00;;;15.40;99.90;;;;;;5053962;28;20502;-73
2022/09/25 09:12:46;;;;;;;1.53;1.03;;;15.50;99.90;;;;;;5056717;28;20444;-74
2022/09/25 09:15:22;;;;;;;1.67;1.03;;;15.50;99.90;;;;;;5059897;28;20840;-73
2022/09/25 09:17:49;;;;;;;2.33;1.30;;;15.60;99.90;;;;;;5055341;28;20537;-73
2022/09/25 09:20:18;;;;;;;1.40;1.30;;;15.80;98.00;;;;;;5051357;28;20537;-74
2022/09/25 09:22:51;;;;;;;1.47;0.90;;;16.00;59.90;;;;;;5059156;28;20538;-72
2022/09/25 09:25:28;;;;;;;2.23;1.60;;;16.00;74.70;;;;;;5049018;28;20875;-71
2022/09/25 09:28:19;;;;;;;1.97;0.90;;;16.10;48.90;;;;;;5055804;28;20764;-71
2022/09/25 09:30:58;;;;;;;1.47;1.07;;;16.20;48.80;;;;;;5064918;28;20479;-73
2022/09/25 09:33:41;;;;;;;3.10;1.00;;;16.20;18.80;;;;;;5054125;28;20447;-72
2022/09/25 09:36:13;;;;;;;1.70;1.00;;;16.10;37.00;;;;;;5059688;28;20439;-72
2022/09/25 09:38:48;;;;;;;1.40;1.07;;;16.00;10.30;;;;;;5059925;28;21045;-73
2022/09/25 09:41:32;;;;;;;1.37;1.00;;;15.80;43.80;;;;;;5055334;28;20443;-72
2022/09/25 09:44:11;;;;;;;1.50;0.90;;;15.80;53.60;;;;;;5048732;28;20592;-72
2022/09/25 09:46:49;;;;;;;1.47;0.90;;;15.90;37.20;;;;;;5053822;28;20513;-72
2022/09/25 09:49:21;;;;;;;1.80;0.90;;;15.90;43.30;;;;;;5057468;28;20538;-72
2022/09/25 09:51:53;;;;;;;2.10;1.00;;;15.90;54.80;;;;;;5049579;28;20475;-72
2022/09/25 09:54:26;;;;;;;2.70;1.00;;;16.00;35.80;;;;;;5051873;28;20466;-72
2022/09/25 09:56:56;;;;;;;1.33;1.00;;;15.90;48.60;;;;;;5049724;28;20509;-73
2022/09/25 09:59:28;;;;;;;2.50;1.00;;;15.90;42.20;;;;;;5054254;28;20527;-72
2022/09/25 10:02:01;;;;;;;1.80;0.97;;;15.80;39.90;;;;;;5057478;28;20462;-72
2022/09/25 10:04:33;;;;;;;2.00;1.00;;;15.80;53.00;;;;;;5070793;28;20765;-72
2022/09/25 10:07:04;;;;;;;1.80;1.00;;;15.80;56.90;;;;;;5056304;28;20456;-72
2022/09/25 10:09:33;;;;;;;1.80;1.10;;;15.90;65.10;;;;;;5060591;28;20440;-73
2022/09/25 10:12:03;;;;;;;1.30;1.00;;;15.90;35.00;;;;;;5068059;28;20450;-73
2022/09/25 10:14:36;;;;;;;2.10;1.00;;;15.80;62.10;;;;;;5071946;28;20446;-73
2022/09/25 10:17:04;;;;;;;1.80;1.07;;;15.90;51.10;;;;;;5058864;28;20749;-73
2022/09/25 10:19:41;;;;;;;2.30;1.20;;;16.10;54.90;;;;;;5063395;28;20822;-72
2022/09/25 10:22:15;;;;;;;2.20;1.10;;;16.40;25.40;;;;;;5063430;28;20536;-73
2022/09/25 10:24:52;;;;;;;3.40;1.50;;;16.60;15.00;;;;;;5054961;28;20451;-73
2022/09/25 10:27:40;;;;;;;1.87;1.20;;;16.90;22.70;;;;;;5069498;28;20458;-73
2022/09/25 10:30:17;;;;;;;2.00;1.00;;;17.10;3.90;;;;;;5062044;28;20529;-73
2022/09/25 10:32:53;;;;;;;2.00;1.10;;;17.20;1.00;;;;;;5056333;28;20450;-74
2022/09/25 10:35:21;;;;;;;2.73;1.20;;;17.00;12.70;;;;;;5060237;28;20745;-73
2022/09/25 10:37:51;;;;;;;2.53;1.20;;;16.90;18.70;;;;;;5057647;28;20891;-73
2022/09/25 10:40:34;;;;;;;1.97;1.07;;;16.70;19.70;;;;;;5053838;28;20501;-73
2022/09/25 10:43:14;;;;;;;2.03;1.23;;;16.50;38.20;;;;;;5055945;28;20532;-72
2022/09/25 10:45:41;;;;;;;1.60;1.10;;;16.30;55.90;;;;;;5054973;28;20454;-72
2022/09/25 10:51:17;;;;;;;1.90;1.30;;;15.90;92.50;;;;;;5051755;28;20474;-73
2022/09/25 10:53:44;;;;;;;1.90;1.50;;;15.90;92.80;;;;;;5068042;28;20481;-73
2022/09/25 10:56:17;;;;;;;2.50;1.30;;;15.90;96.00;;;;;;5070421;28;20462;-73
2022/09/25 10:58:49;;;;;;;2.20;1.60;;;15.90;99.20;;;;;;5055894;28;20461;-72
2022/09/25 11:01:16;;;;;;;2.60;1.40;;;15.80;99.90;;;;;;5058364;28;20455;-73
2022/09/25 11:03:53;;;;;;;3.70;2.10;;;15.60;99.90;;;;;;5067477;28;20533;-73
2022/09/25 11:06:24;;;;;;;2.47;1.40;;;15.40;99.90;;;;;;5065317;28;20512;-72
2022/09/25 11:09:03;;;;;;;1.97;1.47;;;15.30;99.90;;;;;;5071039;28;21049;-73
2022/09/25 11:11:32;;;;;;;4.10;1.70;;;15.20;99.90;;;;;;5071391;28;20479;-73
2022/09/25 11:14:02;;;;;;;2.80;1.90;;;15.20;99.90;;;;;;5059243;28;20909;-73
2022/09/25 11:16:47;;;;;;;4.37;2.03;;;15.20;99.90;;;;;;5056218;28;20898;-73
2022/09/25 11:19:19;;;;;;;5.77;1.70;;;15.30;99.90;;;;;;5068286;28;20541;-73
2022/09/25 11:21:55;;;;;;;3.87;2.03;;;15.20;99.90;;;;;;5073954;28;20567;-73
2022/09/25 11:24:27;;;;;;;4.30;1.93;;;15.10;99.90;;;;;;5063823;28;20906;-73
2022/09/25 11:27:02;;;;;;;2.93;2.47;;;15.10;99.90;;;;;;5056213;28;21071;-72
2022/09/25 11:29:41;;;;;;;3.50;2.70;;;15.20;99.90;;;;;;5059004;28;20473;-72
2022/09/25 11:32:18;;;;;;;5.00;3.40;;;15.20;99.90;;;;;;5067274;28;20485;-72
2022/09/25 11:35:18;;;;;;;5.73;3.60;;;15.30;99.90;;;;;;5071747;28;20454;-73
2022/09/25 11:37:54;;;;;;;5.40;2.80;;;15.40;99.90;;;;;;5057136;28;20713;-72
2022/09/25 11:43:34;;;;;;;4.27;2.73;;;15.50;99.90;;;;;;5067808;28;20467;-73
2022/09/25 11:46:06;;;;;;;3.90;2.53;;;15.50;99.90;;;;;;5055882;28;20458;-72
2022/09/25 11:48:45;;;;;;;4.13;2.50;;;15.60;99.90;;;;;;5068035;28;20794;-72
2022/09/25 11:51:23;;;;;;;6.60;4.30;;;15.50;99.90;;;;;;5055174;28;20967;-72
2022/09/25 11:54:01;;;;;;;6.27;3.50;;;15.60;99.90;;;;;;5058425;28;20451;-73
2022/09/25 11:56:35;;;;;;;4.90;3.47;;;15.30;99.90;;;;;;5058122;28;20538;-72
2022/09/25 11:59:21;;;;;;;6.30;3.90;;;15.30;99.90;;;;;;5058522;28;21120;-72
2022/09/25 12:01:54;;;;;;;8.03;3.60;;;15.40;99.90;;;;;;5067952;28;20462;-73
2022/09/25 12:04:43;;;;;;;6.20;4.83;;;15.50;99.90;;;;;;5058478;28;20934;-72
2022/09/25 12:07:44;;;;;;;5.37;3.90;;;15.50;99.90;;;;;;5054820;28;20579;-72
2022/09/25 12:10:32;;;;;;;6.30;3.30;;;15.30;99.90;;;;;;5032991;28;20833;-73
2022/09/25 12:13:11;;;;;;;5.50;3.13;;;15.50;99.90;;;;;;5057658;28;20447;-72
2022/09/25 12:15:51;;;;;;;8.53;6.07;;;15.50;99.90;;;;;;5054077;28;20858;-72
2022/09/25 12:18:28;;;;;;;5.40;3.47;;;15.50;87.40;;;;;;5057601;28;20457;-72
2022/09/25 12:21:01;;;;;;;5.70;4.10;;;15.50;95.20;;;;;;5073318;28;20454;-71
2022/09/25 12:23:31;;;;;;;5.57;4.10;;;15.40;99.90;;;;;;5077842;28;20933;-71
2022/09/25 12:26:16;;;;;;;6.57;3.97;;;15.40;94.70;;;;;;5073029;28;20840;-71
2022/09/25 12:28:55;;;;;;;7.57;4.80;;;15.50;99.90;;;;;;5076449;28;20545;-71
2022/09/25 12:31:33;;;;;;;6.30;4.60;;;15.80;97.30;;;;;;5073859;28;20486;-71
2022/09/25 12:34:13;;;;;;;5.67;4.10;;;16.00;74.80;;;;;;5077180;28;20446;-72
2022/09/25 12:36:44;;;;;;;7.07;4.70;;;16.10;69.80;;;;;;5065153;28;20883;-72
2022/09/25 12:39:25;;;;;;;4.20;3.30;;;16.40;54.50;;;;;;5057090;28;20538;-72
2022/09/25 12:42:05;;;;;;;7.87;4.10;;;16.70;36.30;;;;;;5054059;28;20451;-72
2022/09/25 12:44:41;;;;;;;6.80;3.43;;;16.90;31.10;;;;;;5038715;28;20533;-72
2022/09/25 12:47:14;;;;;;;5.33;3.57;;;17.10;19.30;;;;;;5033106;28;20464;-72
2022/09/25 12:49:46;;;;;;;5.10;3.80;;;17.00;1.00;;;;;;5037589;28;20456;-71
2022/09/25 12:52:17;;;;;;;4.37;3.20;;;17.20;1.00;;;;;;5044804;28;20479;-72
2022/09/25 12:54:52;;;;;;;4.00;2.60;;;17.30;1.00;;;;;;5044656;28;20462;-72
2022/09/25 12:57:25;;;;;;;3.80;2.80;;;17.40;1.00;;;;;;5035004;28;20506;-72
2022/09/25 12:59:55;;;;;;;4.60;1.87;;;17.40;1.00;;;;;;5036498;28;20847;-71
2022/09/25 13:02:29;;;;;;;3.37;2.17;;;17.40;1.00;;;;;;5033365;28;20535;-72
2022/09/25 13:05:03;;;;;;;2.67;1.97;;;17.20;1.00;;;;;;5034700;28;20454;-72
2022/09/25 13:07:38;;;;;;;3.97;2.00;;;17.20;1.00;;;;;;5046602;28;20513;-72
2022/09/25 13:10:25;;;;;;;3.27;1.90;;;17.10;1.00;;;;;;5056044;28;20453;-72
2022/09/25 13:12:55;;;;;;;2.43;1.60;;;17.00;1.00;;;;;;5055069;28;20871;-73
2022/09/25 13:15:25;;;;;;;4.47;2.30;;;17.10;1.00;;;;;;5052344;28;20913;-73
2022/09/25 13:17:54;;;;;;;2.90;1.90;;;17.10;1.00;;;;;;5055641;28;20443;-73
2022/09/25 13:20:52;;;;;;;1.97;1.30;;;17.20;1.00;;;;;;5052979;28;20443;-73
2022/09/25 13:23:35;;;;;;;3.63;2.00;;;17.20;1.00;;;;;;5048469;28;20962;-73
2022/09/25 13:26:11;;;;;;;3.00;2.70;;;17.10;1.00;;;;;;5044077;28;20452;-73
2022/09/25 13:28:40;;;;;;;2.83;2.53;;;17.00;1.00;;;;;;5036755;28;20550;-73
2022/09/25 13:31:10;;;;;;;2.77;1.90;;;16.80;1.00;;;;;;5033406;28;20492;-72